Time;durP1;ratioP1;P1;durP2;ratioP2;P2;SDS_P1;SDS_P2;PMS_P1;PMS_P2;Temp;Humidity;BMP_temperature;BMP_pressure;BME280_temperature;BME280_humidity;BME280_pressure;Samples;Min_cycle;Max_cycle;Signal;HPM_P1;HPM_P2
2023/08/16 00:01:45;;;;;;;7.38;3.45;;;14.60;99.90;;;;;;4957294;28;20092;-71
2023/08/16 00:04:11;;;;;;;5.63;3.30;;;14.60;99.90;;;;;;5021827;28;20045;-71
2023/08/16 00:06:42;;;;;;;9.30;3.92;;;14.50;99.90;;;;;;4991054;28;20045;-71
2023/08/16 00:09:08;;;;;;;5.13;3.83;;;14.40;99.90;;;;;;4993115;28;20126;-71
2023/08/16 00:11:34;;;;;;;5.60;4.07;;;14.30;99.90;;;;;;5002556;28;20061;-71
2023/08/16 00:14:00;;;;;;;6.10;3.38;;;14.30;99.90;;;;;;4990968;28;20562;-71
2023/08/16 00:16:26;;;;;;;5.55;3.72;;;14.30;99.90;;;;;;4992594;28;20562;-71
2023/08/16 00:18:51;;;;;;;10.07;4.20;;;14.20;99.90;;;;;;5004217;28;20034;-71
2023/08/16 00:21:17;;;;;;;5.00;4.18;;;14.20;99.90;;;;;;5010740;28;20494;-71
2023/08/16 00:23:43;;;;;;;8.13;4.40;;;14.20;99.90;;;;;;4989434;28;20129;-71
2023/08/16 00:26:09;;;;;;;8.57;4.10;;;14.20;99.90;;;;;;4971335;28;20612;-71
2023/08/16 00:28:34;;;;;;;6.32;3.80;;;14.10;99.90;;;;;;4969862;28;20054;-71
2023/08/16 00:31:00;;;;;;;3.80;3.42;;;14.10;99.90;;;;;;5030382;28;20042;-71
2023/08/16 00:33:26;;;;;;;8.60;3.70;;;14.10;99.90;;;;;;4995202;28;20050;-71
2023/08/16 00:35:52;;;;;;;8.18;4.00;;;14.10;99.90;;;;;;4996323;28;20045;-71
2023/08/16 00:38:19;;;;;;;7.22;3.92;;;14.10;99.90;;;;;;5001516;28;20184;-71
2023/08/16 00:40:48;;;;;;;8.52;4.25;;;14.10;99.90;;;;;;4996745;28;20038;-71
2023/08/16 00:43:15;;;;;;;6.90;4.20;;;14.10;99.90;;;;;;5003450;28;20807;-71
2023/08/16 00:45:41;;;;;;;7.78;3.40;;;14.10;99.90;;;;;;5019975;28;20121;-71
2023/08/16 00:48:07;;;;;;;3.92;3.25;;;14.10;99.90;;;;;;4998108;28;20053;-71
2023/08/16 00:50:32;;;;;;;4.53;3.05;;;14.00;99.90;;;;;;5019447;28;20041;-71
2023/08/16 00:52:58;;;;;;;6.78;3.35;;;14.00;99.90;;;;;;5014918;28;20129;-71
2023/08/16 00:55:24;;;;;;;5.03;3.83;;;13.90;99.90;;;;;;4990285;28;20044;-71
2023/08/16 00:57:50;;;;;;;4.13;3.10;;;13.90;99.90;;;;;;4986582;28;20045;-71
2023/08/16 01:00:16;;;;;;;7.45;3.55;;;13.90;99.90;;;;;;5003337;28;20077;-71
2023/08/16 01:02:41;;;;;;;6.10;3.53;;;13.90;99.90;;;;;;5004608;28;20042;-71
2023/08/16 01:05:08;;;;;;;6.05;3.72;;;13.90;99.90;;;;;;4987331;28;20113;-71
2023/08/16 01:07:34;;;;;;;7.57;4.18;;;13.90;99.90;;;;;;4980226;28;20066;-71
2023/08/16 01:09:59;;;;;;;9.55;4.72;;;13.90;99.90;;;;;;5020252;28;20076;-71
2023/08/16 01:12:36;;;;;;;7.75;4.50;;;13.90;99.90;;;;;;4989622;28;20042;-71
2023/08/16 01:15:11;;;;;;;6.90;4.13;;;14.00;99.90;;;;;;4996707;28;20121;-70
2023/08/16 01:17:38;;;;;;;12.70;4.40;;;14.00;99.90;;;;;;4994930;28;20041;-70
2023/08/16 01:20:07;;;;;;;10.10;4.47;;;14.00;99.90;;;;;;5013195;28;20037;-71
2023/08/16 01:23:03;;;;;;;8.63;4.30;;;13.90;99.90;;;;;;4998161;28;20045;-71
2023/08/16 01:25:50;;;;;;;7.95;4.65;;;14.00;99.90;;;;;;5000297;28;20065;-71
2023/08/16 01:28:18;;;;;;;8.63;4.63;;;13.90;99.90;;;;;;4998172;28;20116;-71
2023/08/16 01:30:45;;;;;;;6.22;4.47;;;13.90;99.90;;;;;;5038094;28;20376;-71
2023/08/16 01:33:12;;;;;;;6.88;4.38;;;13.80;99.90;;;;;;5001162;28;20041;-70
2023/08/16 01:35:39;;;;;;;7.00;4.10;;;13.80;99.90;;;;;;4990091;28;20522;-71
2023/08/16 01:38:10;;;;;;;9.45;4.38;;;13.70;99.90;;;;;;4994773;28;20046;-71
2023/08/16 01:40:53;;;;;;;7.25;4.43;;;13.70;99.90;;;;;;5001709;28;20087;-70
2023/08/16 01:43:20;;;;;;;7.55;4.60;;;13.60;99.90;;;;;;4999551;28;21233;-71
2023/08/16 01:45:48;;;;;;;6.22;3.80;;;13.60;99.90;;;;;;5001549;28;20049;-70
2023/08/16 01:48:15;;;;;;;3.70;3.20;;;13.50;99.90;;;;;;5024281;28;20037;-71
2023/08/16 01:50:41;;;;;;;4.13;3.13;;;13.50;99.90;;;;;;5023800;28;21161;-70
2023/08/16 01:53:08;;;;;;;3.60;3.30;;;13.40;99.90;;;;;;5013205;28;20042;-70
2023/08/16 01:55:33;;;;;;;5.32;3.80;;;13.50;99.90;;;;;;5000218;28;20070;-70
2023/08/16 01:58:00;;;;;;;7.35;4.15;;;13.50;99.90;;;;;;4999387;28;20513;-70
2023/08/16 02:00:26;;;;;;;9.85;4.45;;;13.40;99.90;;;;;;5027149;28;20053;-70
2023/08/16 02:02:51;;;;;;;5.53;3.88;;;13.40;99.90;;;;;;5020463;28;20492;-70
2023/08/16 02:05:17;;;;;;;11.13;5.38;;;13.40;99.90;;;;;;4997190;28;20050;-70
2023/08/16 02:07:43;;;;;;;8.55;5.32;;;13.40;99.90;;;;;;5024470;28;20069;-70
2023/08/16 02:10:09;;;;;;;11.43;4.82;;;13.40;99.90;;;;;;4989727;28;20107;-70
2023/08/16 02:12:34;;;;;;;7.63;5.25;;;13.40;99.90;;;;;;4998116;28;20053;-70
2023/08/16 02:15:01;;;;;;;7.40;4.70;;;13.40;99.90;;;;;;4990435;28;20128;-70
2023/08/16 02:17:26;;;;;;;9.85;5.32;;;13.30;99.90;;;;;;5000274;28;20038;-70
2023/08/16 02:19:53;;;;;;;6.80;5.15;;;13.30;99.90;;;;;;5013681;28;20053;-70
2023/08/16 02:22:19;;;;;;;6.47;4.60;;;13.30;99.90;;;;;;4989427;28;20045;-70
2023/08/16 02:24:44;;;;;;;4.60;3.67;;;13.30;99.90;;;;;;4990399;28;20042;-70
2023/08/16 02:27:11;;;;;;;5.50;3.85;;;13.30;99.90;;;;;;5032929;28;20042;-70
2023/08/16 02:29:36;;;;;;;5.13;3.55;;;13.20;99.90;;;;;;4999357;28;20061;-70
2023/08/16 02:32:02;;;;;;;6.38;3.65;;;13.20;99.90;;;;;;5028191;28;20042;-70
2023/08/16 02:34:28;;;;;;;6.13;4.40;;;13.10;99.90;;;;;;4958803;28;20064;-70
2023/08/16 02:36:53;;;;;;;7.53;4.93;;;13.10;99.90;;;;;;4997875;28;20141;-72
2023/08/16 02:39:19;;;;;;;6.78;4.63;;;13.10;99.90;;;;;;4973151;28;20395;-72
2023/08/16 02:41:46;;;;;;;6.22;4.50;;;13.10;99.90;;;;;;5006027;28;20124;-71
2023/08/16 02:44:11;;;;;;;6.00;4.60;;;13.10;99.90;;;;;;5017143;28;20191;-70
2023/08/16 02:46:37;;;;;;;7.57;5.13;;;13.10;99.90;;;;;;5033854;28;20546;-70
2023/08/16 02:49:03;;;;;;;8.60;5.22;;;13.10;99.90;;;;;;4999432;28;20034;-70
2023/08/16 02:51:28;;;;;;;5.63;4.22;;;13.00;99.90;;;;;;4982764;28;20048;-71
2023/08/16 02:53:54;;;;;;;5.85;4.50;;;13.00;99.90;;;;;;4989746;28;20040;-70
2023/08/16 02:56:20;;;;;;;9.63;5.10;;;13.00;99.90;;;;;;4976434;28;20065;-70
2023/08/16 02:58:45;;;;;;;7.07;4.05;;;13.00;99.90;;;;;;5022956;28;20066;-70
2023/08/16 03:01:11;;;;;;;5.28;3.80;;;12.90;99.90;;;;;;5035411;28;20038;-71
2023/08/16 03:03:37;;;;;;;5.82;4.10;;;12.90;99.90;;;;;;5034344;28;20042;-70
2023/08/16 03:06:03;;;;;;;10.20;4.20;;;12.90;99.90;;;;;;5012504;28;20449;-70
2023/08/16 03:08:29;;;;;;;5.25;4.10;;;12.90;99.90;;;;;;5036665;28;20388;-70
2023/08/16 03:10:55;;;;;;;7.85;4.55;;;12.90;99.90;;;;;;4974195;28;20053;-70
2023/08/16 03:13:20;;;;;;;6.00;4.72;;;12.90;99.90;;;;;;4985769;28;20033;-72
2023/08/16 03:15:46;;;;;;;8.65;4.75;;;12.90;99.90;;;;;;5015083;28;20499;-72
2023/08/16 03:18:12;;;;;;;7.32;5.80;;;12.90;99.90;;;;;;4981889;28;20042;-72
2023/08/16 03:20:38;;;;;;;11.38;7.00;;;12.90;99.90;;;;;;5035748;28;20061;-72
2023/08/16 03:23:04;;;;;;;14.02;6.97;;;12.90;99.90;;;;;;4981583;28;20045;-71
2023/08/16 03:25:29;;;;;;;11.45;7.20;;;12.90;99.90;;;;;;5013967;28;20044;-71
2023/08/16 03:27:55;;;;;;;10.30;6.78;;;13.00;99.90;;;;;;5014550;28;20129;-70
2023/08/16 03:30:21;;;;;;;10.02;7.63;;;12.90;99.90;;;;;;5005622;28;20054;-71
2023/08/16 03:32:46;;;;;;;10.25;7.70;;;12.90;99.90;;;;;;5033874;28;20038;-71
2023/08/16 03:35:12;;;;;;;8.07;6.18;;;12.90;99.90;;;;;;5013933;28;20060;-71
2023/08/16 03:37:38;;;;;;;7.50;5.70;;;12.90;99.90;;;;;;4996534;28;20188;-72
2023/08/16 03:40:06;;;;;;;5.60;3.97;;;12.90;99.90;;;;;;5008131;28;20594;-71
2023/08/16 03:42:32;;;;;;;4.20;3.55;;;12.80;99.90;;;;;;4981836;28;20076;-70
2023/08/16 03:44:57;;;;;;;4.53;3.70;;;12.80;99.90;;;;;;5034225;28;20041;-71
2023/08/16 03:47:23;;;;;;;5.93;4.55;;;12.70;99.90;;;;;;5033253;28;20038;-71
2023/08/16 03:49:49;;;;;;;5.95;4.63;;;12.70;99.90;;;;;;4978999;28;20042;-72
2023/08/16 03:52:15;;;;;;;7.38;5.13;;;12.60;99.90;;;;;;5012564;28;20487;-70
2023/08/16 03:54:40;;;;;;;6.22;4.72;;;12.60;99.90;;;;;;4973594;28;20041;-70
2023/08/16 03:57:07;;;;;;;8.23;4.80;;;12.60;99.90;;;;;;4979868;28;20423;-70
2023/08/16 03:59:32;;;;;;;7.95;5.32;;;12.60;99.90;;;;;;5034939;28;20065;-70
2023/08/16 04:01:58;;;;;;;7.72;5.72;;;12.60;99.90;;;;;;4997349;28;20448;-69
2023/08/16 04:04:24;;;;;;;8.95;6.07;;;12.60;99.90;;;;;;5014696;28;20117;-70
2023/08/16 04:06:49;;;;;;;12.18;5.40;;;12.60;99.90;;;;;;5009882;28;20403;-70
2023/08/16 04:09:16;;;;;;;5.68;4.68;;;12.60;99.90;;;;;;5036723;28;20042;-70
2023/08/16 04:11:42;;;;;;;6.68;5.10;;;12.60;99.90;;;;;;5035741;28;20049;-70
2023/08/16 04:14:07;;;;;;;5.80;5.18;;;12.60;99.90;;;;;;4993750;28;20038;-70
2023/08/16 04:16:33;;;;;;;6.15;5.00;;;12.50;99.90;;;;;;4995853;28;20044;-70
2023/08/16 04:18:59;;;;;;;7.20;5.70;;;12.50;99.90;;;;;;5013153;28;20038;-70
2023/08/16 04:21:24;;;;;;;6.00;4.95;;;12.50;99.90;;;;;;4997311;28;20470;-70
2023/08/16 04:23:50;;;;;;;5.32;4.55;;;12.50;99.90;;;;;;5014343;28;20041;-70
2023/08/16 04:26:16;;;;;;;8.85;4.70;;;12.50;99.90;;;;;;5014666;28;20116;-70
2023/08/16 04:28:41;;;;;;;5.63;3.90;;;12.50;99.90;;;;;;4980048;28;20058;-70
2023/08/16 04:31:07;;;;;;;4.60;4.13;;;12.40;99.90;;;;;;4975980;28;20038;-70
2023/08/16 04:33:33;;;;;;;5.10;3.50;;;12.40;99.90;;;;;;4983404;28;20092;-70
2023/08/16 04:35:59;;;;;;;4.60;4.18;;;12.40;99.90;;;;;;4999841;28;20045;-70
2023/08/16 04:38:24;;;;;;;4.80;3.92;;;12.50;99.90;;;;;;5032657;28;20134;-70
2023/08/16 04:40:50;;;;;;;5.63;4.95;;;12.40;99.90;;;;;;5005563;28;20774;-69
2023/08/16 04:43:16;;;;;;;5.30;4.80;;;12.50;99.90;;;;;;5029814;28;20037;-69
2023/08/16 04:45:42;;;;;;;5.35;4.35;;;12.50;99.90;;;;;;4962946;28;20046;-69
2023/08/16 04:48:11;;;;;;;6.80;4.22;;;12.50;99.90;;;;;;5036992;28;20395;-69
2023/08/16 04:50:36;;;;;;;6.45;4.75;;;12.60;99.90;;;;;;4990600;28;20127;-69
2023/08/16 04:53:02;;;;;;;5.65;4.50;;;12.60;99.90;;;;;;5003511;28;20045;-70
2023/08/16 04:55:28;;;;;;;6.35;5.32;;;12.70;99.90;;;;;;4999444;28;20088;-69
2023/08/16 04:57:55;;;;;;;8.68;6.38;;;12.80;99.90;;;;;;5006380;28;20041;-69
2023/08/16 05:00:21;;;;;;;11.57;7.72;;;12.80;99.90;;;;;;5039665;28;20046;-69
2023/08/16 05:02:47;;;;;;;11.57;7.40;;;12.90;99.90;;;;;;4999178;28;20404;-69
2023/08/16 05:05:13;;;;;;;10.00;8.15;;;13.00;99.90;;;;;;5000769;28;20500;-69
2023/08/16 05:07:38;;;;;;;13.13;8.98;;;13.10;99.90;;;;;;5011950;28;20038;-69
2023/08/16 05:10:05;;;;;;;13.68;9.90;;;13.10;99.90;;;;;;5007888;28;20037;-69
2023/08/16 05:12:30;;;;;;;14.60;11.43;;;13.20;99.90;;;;;;4981743;28;20081;-69
2023/08/16 05:14:56;;;;;;;15.30;11.32;;;13.20;99.90;;;;;;5006921;28;20070;-69
2023/08/16 05:17:22;;;;;;;14.00;9.82;;;13.30;99.90;;;;;;5010296;28;20030;-69
2023/08/16 05:19:48;;;;;;;11.73;8.52;;;13.40;99.90;;;;;;5036846;28;20041;-69
2023/08/16 05:22:13;;;;;;;10.60;8.32;;;13.40;99.90;;;;;;4970344;28;20038;-69
2023/08/16 05:24:39;;;;;;;15.50;10.27;;;13.40;99.90;;;;;;4995817;28;20033;-69
2023/08/16 05:27:11;;;;;;;15.32;10.13;;;13.50;99.90;;;;;;5014996;28;20182;-68
2023/08/16 05:29:38;;;;;;;15.05;10.70;;;13.50;99.90;;;;;;5037850;28;20503;-69
2023/08/16 05:32:04;;;;;;;16.20;10.13;;;13.60;99.90;;;;;;4989942;28;20129;-68
2023/08/16 05:34:29;;;;;;;10.65;9.52;;;13.60;99.90;;;;;;5003491;28;21624;-68
2023/08/16 05:36:55;;;;;;;14.65;10.07;;;13.70;99.90;;;;;;5022733;28;20050;-69
2023/08/16 05:39:22;;;;;;;11.70;9.35;;;13.70;99.90;;;;;;5010645;28;20116;-69
2023/08/16 05:41:48;;;;;;;15.05;9.95;;;13.80;99.90;;;;;;4991594;28;20045;-69
2023/08/16 05:44:14;;;;;;;13.98;9.60;;;13.80;99.90;;;;;;4999655;28;20046;-70
2023/08/16 05:46:39;;;;;;;14.27;9.45;;;13.80;99.90;;;;;;5013592;28;20041;-70
2023/08/16 05:49:05;;;;;;;13.98;9.07;;;13.80;99.90;;;;;;5009253;28;20037;-70
2023/08/16 05:51:35;;;;;;;15.18;8.93;;;13.80;99.90;;;;;;4998186;28;20523;-70
2023/08/16 05:54:04;;;;;;;13.48;9.35;;;13.90;99.90;;;;;;5032840;28;20436;-70
2023/08/16 05:56:30;;;;;;;13.98;10.57;;;14.00;99.90;;;;;;4986629;28;20488;-70
2023/08/16 05:58:55;;;;;;;15.45;9.25;;;14.00;99.90;;;;;;4990781;28;20044;-70
2023/08/16 06:01:21;;;;;;;12.93;9.05;;;14.10;99.90;;;;;;4993158;28;20041;-70
2023/08/16 06:03:47;;;;;;;14.88;9.52;;;14.10;99.90;;;;;;5003370;28;20133;-70
2023/08/16 06:06:13;;;;;;;13.40;8.95;;;14.20;99.90;;;;;;5015478;28;20038;-70
2023/08/16 06:08:38;;;;;;;23.15;10.52;;;14.20;99.90;;;;;;5002789;28;20045;-70
2023/08/16 06:11:05;;;;;;;15.93;10.27;;;14.20;99.90;;;;;;5006465;28;20065;-70
2023/08/16 06:13:30;;;;;;;13.57;10.82;;;14.30;99.90;;;;;;5003705;28;20041;-70
2023/08/16 06:15:56;;;;;;;22.02;10.40;;;14.40;99.90;;;;;;5004113;28;20040;-71
2023/08/16 06:18:22;;;;;;;17.38;10.18;;;14.60;99.90;;;;;;5002276;28;20403;-70
2023/08/16 06:20:48;;;;;;;18.73;12.05;;;14.70;99.90;;;;;;4989626;28;20042;-70
2023/08/16 06:23:13;;;;;;;16.13;10.90;;;14.80;99.90;;;;;;5002578;28;20180;-70
2023/08/16 06:25:39;;;;;;;14.90;11.30;;;14.90;99.90;;;;;;5007961;28;20041;-70
2023/08/16 06:28:05;;;;;;;16.05;10.13;;;15.00;99.90;;;;;;5003083;28;20033;-70
2023/08/16 06:30:31;;;;;;;15.68;9.82;;;15.10;99.90;;;;;;4995767;28;20077;-70
2023/08/16 06:32:56;;;;;;;16.73;9.80;;;15.20;99.90;;;;;;4957231;28;20396;-70
2023/08/16 06:35:22;;;;;;;13.85;9.63;;;15.30;99.90;;;;;;4997628;28;20052;-70
2023/08/16 06:37:48;;;;;;;15.38;10.63;;;15.40;99.90;;;;;;5006691;28;20093;-70
2023/08/16 06:40:13;;;;;;;17.90;10.45;;;15.50;99.90;;;;;;5004430;28;20131;-70
2023/08/16 06:42:39;;;;;;;13.13;9.20;;;15.60;99.90;;;;;;5008962;28;20038;-70
2023/08/16 06:45:07;;;;;;;16.50;10.18;;;15.70;99.90;;;;;;5004549;28;20052;-70
2023/08/16 06:47:32;;;;;;;17.08;9.60;;;15.70;99.90;;;;;;4998714;28;20049;-71
2023/08/16 06:49:58;;;;;;;15.85;8.05;;;15.90;99.90;;;;;;5007603;28;20053;-70
2023/08/16 06:52:24;;;;;;;14.73;9.43;;;15.90;99.90;;;;;;5006434;28;20752;-68
2023/08/16 06:54:49;;;;;;;23.40;8.30;;;16.00;99.90;;;;;;4991752;28;20042;-69
2023/08/16 06:57:15;;;;;;;15.43;9.30;;;16.20;99.90;;;;;;4990939;28;20053;-69
2023/08/16 06:59:41;;;;;;;13.45;8.45;;;16.30;99.90;;;;;;5035408;28;20042;-69
2023/08/16 07:02:11;;;;;;;11.23;8.40;;;16.30;99.90;;;;;;5034865;28;20519;-69
2023/08/16 07:04:38;;;;;;;15.50;8.90;;;16.50;99.90;;;;;;5001870;28;20046;-69
2023/08/16 07:07:05;;;;;;;13.73;9.43;;;16.60;99.90;;;;;;5015426;28;20423;-68
2023/08/16 07:09:31;;;;;;;12.02;8.43;;;16.60;99.90;;;;;;5014393;28;20491;-68
2023/08/16 07:11:57;;;;;;;12.40;8.75;;;16.80;99.90;;;;;;5022782;28;20056;-68
2023/08/16 07:14:22;;;;;;;12.60;8.60;;;17.00;99.90;;;;;;4993448;28;20064;-69
2023/08/16 07:16:48;;;;;;;15.02;8.93;;;17.30;99.90;;;;;;5039721;28;20033;-69
2023/08/16 07:19:14;;;;;;;12.75;8.73;;;17.30;99.90;;;;;;5011546;28;20045;-68
2023/08/16 07:21:40;;;;;;;13.80;8.77;;;17.50;99.90;;;;;;5013349;28;20175;-69
2023/08/16 07:24:06;;;;;;;12.23;7.28;;;17.60;99.90;;;;;;5027848;28;20042;-68
2023/08/16 07:26:31;;;;;;;10.98;7.28;;;17.70;99.90;;;;;;5013445;28;20124;-68
2023/08/16 07:28:57;;;;;;;15.52;8.82;;;17.70;99.90;;;;;;5011186;28;20625;-68
2023/08/16 07:31:23;;;;;;;12.30;7.50;;;17.70;99.90;;;;;;5012224;28;20048;-68
2023/08/16 07:33:49;;;;;;;10.60;6.97;;;17.80;99.90;;;;;;5009441;28;20053;-68
2023/08/16 07:36:15;;;;;;;14.98;8.40;;;17.80;99.90;;;;;;5002761;28;20394;-68
2023/08/16 07:38:40;;;;;;;11.88;7.20;;;17.80;99.90;;;;;;5015499;28;20457;-69
2023/08/16 07:41:07;;;;;;;9.07;7.65;;;17.90;99.90;;;;;;5046592;28;20037;-70
2023/08/16 07:43:32;;;;;;;12.90;6.38;;;18.10;99.90;;;;;;4998893;28;20507;-70
2023/08/16 07:45:58;;;;;;;11.52;7.55;;;18.20;99.90;;;;;;4999814;28;20083;-70
2023/08/16 07:48:24;;;;;;;14.32;6.68;;;18.30;99.90;;;;;;5012543;28;20033;-70
2023/08/16 07:50:50;;;;;;;10.70;6.93;;;18.40;99.90;;;;;;5012226;28;20037;-70
2023/08/16 07:53:16;;;;;;;11.10;7.45;;;18.40;99.90;;;;;;5043136;28;20046;-70
2023/08/16 07:55:42;;;;;;;8.48;6.68;;;18.50;99.90;;;;;;5005772;28;20037;-70
2023/08/16 07:58:07;;;;;;;10.35;6.80;;;18.40;99.90;;;;;;4979192;28;20068;-70
2023/08/16 08:00:33;;;;;;;12.68;7.30;;;18.50;99.90;;;;;;5020585;28;20037;-70
2023/08/16 08:02:59;;;;;;;10.55;7.63;;;18.60;99.90;;;;;;5013643;28;20156;-69
2023/08/16 08:05:25;;;;;;;10.55;7.38;;;18.70;99.90;;;;;;5027212;28;20394;-70
2023/08/16 08:07:53;;;;;;;8.75;6.85;;;18.90;99.90;;;;;;5005433;28;20040;-69
2023/08/16 08:10:18;;;;;;;16.85;7.90;;;18.90;99.90;;;;;;4994125;28;20042;-70
2023/08/16 08:12:45;;;;;;;12.30;7.25;;;19.10;99.90;;;;;;4989644;28;20046;-70
2023/08/16 08:15:11;;;;;;;14.30;6.18;;;19.10;99.90;;;;;;5035045;28;20084;-71
2023/08/16 08:17:37;;;;;;;13.07;6.40;;;19.10;99.90;;;;;;4993993;28;20045;-69
2023/08/16 08:20:04;;;;;;;7.82;5.93;;;19.10;99.90;;;;;;5018252;28;20088;-70
2023/08/16 08:22:30;;;;;;;8.93;6.28;;;19.00;99.90;;;;;;5007360;28;20045;-71
2023/08/16 08:24:56;;;;;;;9.63;6.68;;;18.90;99.90;;;;;;4992623;28;20974;-71
2023/08/16 08:27:22;;;;;;;10.40;6.88;;;18.80;99.90;;;;;;4992089;28;20036;-71
2023/08/16 08:29:48;;;;;;;12.07;7.78;;;18.80;99.90;;;;;;4992641;28;20154;-71
2023/08/16 08:32:13;;;;;;;10.25;7.07;;;18.90;99.90;;;;;;5000242;28;20036;-71
2023/08/16 08:34:39;;;;;;;10.23;7.25;;;19.10;99.90;;;;;;4993836;28;20038;-71
2023/08/16 08:37:05;;;;;;;10.00;6.38;;;19.30;99.90;;;;;;5020367;28;20037;-72
2023/08/16 08:39:34;;;;;;;10.18;7.82;;;19.50;99.90;;;;;;5005332;28;21111;-72
2023/08/16 08:42:04;;;;;;;12.20;7.85;;;19.80;99.90;;;;;;5020232;28;20076;-72
2023/08/16 08:44:32;;;;;;;13.13;7.05;;;19.80;99.90;;;;;;5019911;28;20052;-71
2023/08/16 08:46:59;;;;;;;10.73;7.15;;;19.80;99.90;;;;;;5020097;28;20037;-72
2023/08/16 08:49:25;;;;;;;11.35;7.18;;;19.70;99.90;;;;;;5021221;28;20052;-72
2023/08/16 08:51:52;;;;;;;13.60;7.57;;;19.60;99.90;;;;;;5020835;28;20067;-71
2023/08/16 08:54:18;;;;;;;8.18;6.45;;;19.50;99.90;;;;;;5021475;28;20108;-71
2023/08/16 08:56:47;;;;;;;9.38;6.05;;;19.60;99.90;;;;;;5003634;28;20624;-71
2023/08/16 08:59:13;;;;;;;8.80;6.35;;;19.80;99.90;;;;;;5033238;28;20041;-71
2023/08/16 09:01:39;;;;;;;7.18;6.03;;;19.90;99.90;;;;;;5004408;28;20048;-72
2023/08/16 09:04:05;;;;;;;9.20;6.82;;;19.90;99.90;;;;;;5020553;28;20045;-70
2023/08/16 09:06:32;;;;;;;9.00;6.32;;;20.00;99.90;;;;;;5048810;28;20045;-72
2023/08/16 09:08:58;;;;;;;8.70;5.75;;;20.10;99.90;;;;;;5020549;28;20411;-71
2023/08/16 09:11:27;;;;;;;8.00;5.10;;;20.30;99.90;;;;;;5004963;28;20099;-72
2023/08/16 09:13:54;;;;;;;6.85;5.53;;;20.60;99.90;;;;;;5019734;28;20380;-72
2023/08/16 09:16:20;;;;;;;8.88;5.95;;;20.80;99.90;;;;;;5049427;28;20042;-72
2023/08/16 09:18:50;;;;;;;11.05;5.05;;;20.90;99.90;;;;;;5021403;28;20045;-72
2023/08/16 09:21:18;;;;;;;7.38;4.80;;;21.00;99.90;;;;;;5038007;28;20042;-71
2023/08/16 09:23:45;;;;;;;10.40;5.03;;;21.10;99.90;;;;;;4969438;28;20065;-71
2023/08/16 09:26:17;;;;;;;9.50;5.50;;;21.20;99.90;;;;;;5044754;28;20042;-71
2023/08/16 09:28:44;;;;;;;5.90;4.75;;;21.40;99.90;;;;;;4980828;28;20061;-71
2023/08/16 09:31:10;;;;;;;5.97;4.35;;;21.50;99.90;;;;;;5013103;28;20049;-71
2023/08/16 09:33:37;;;;;;;7.25;4.53;;;21.60;99.90;;;;;;5020581;28;20410;-72
2023/08/16 09:36:04;;;;;;;7.13;4.35;;;21.70;99.90;;;;;;4986840;28;20079;-72
2023/08/16 09:38:31;;;;;;;6.68;4.68;;;21.80;99.90;;;;;;4994607;28;20042;-72
2023/08/16 09:40:58;;;;;;;6.50;3.65;;;21.70;99.90;;;;;;5011669;28;20117;-72
2023/08/16 09:43:23;;;;;;;7.05;3.92;;;21.80;99.90;;;;;;5009647;28;20045;-72
2023/08/16 09:45:54;;;;;;;8.52;4.47;;;22.00;99.90;;;;;;5009519;28;20057;-74
2023/08/16 09:48:22;;;;;;;7.00;3.67;;;22.00;99.90;;;;;;5041241;28;20038;-76
2023/08/16 09:50:49;;;;;;;5.97;3.95;;;22.10;99.90;;;;;;5000267;28;20038;-74
2023/08/16 09:53:16;;;;;;;8.27;3.70;;;22.20;99.90;;;;;;5006785;28;20407;-71
2023/08/16 09:55:43;;;;;;;8.88;3.88;;;22.30;99.90;;;;;;5011617;28;20037;-73
2023/08/16 09:58:11;;;;;;;5.68;3.28;;;22.20;99.90;;;;;;5013188;28;20038;-73
2023/08/16 10:00:37;;;;;;;4.55;2.90;;;22.20;99.90;;;;;;5029271;28;20125;-73
2023/08/16 10:03:04;;;;;;;5.53;3.75;;;22.40;99.90;;;;;;4995088;28;20042;-73
2023/08/16 10:05:30;;;;;;;5.60;3.80;;;22.50;99.90;;;;;;5010509;28;20041;-73
2023/08/16 10:08:00;;;;;;;5.78;2.92;;;22.70;99.90;;;;;;5024586;28;20038;-73
2023/08/16 10:10:29;;;;;;;4.32;2.92;;;22.70;99.90;;;;;;5042899;28;20415;-74
2023/08/16 10:12:55;;;;;;;6.53;2.97;;;22.80;99.90;;;;;;5007539;28;20195;-72
2023/08/16 10:15:22;;;;;;;5.32;2.78;;;22.90;99.90;;;;;;5028300;28;20384;-73
2023/08/16 10:17:52;;;;;;;4.50;2.65;;;22.90;99.90;;;;;;5026682;28;20103;-74
2023/08/16 10:20:26;;;;;;;4.50;3.00;;;22.70;99.90;;;;;;5001127;28;20053;-73
2023/08/16 10:22:58;;;;;;;6.47;3.08;;;22.50;99.90;;;;;;5052639;28;20062;-72
2023/08/16 10:25:25;;;;;;;;;;;22.40;99.90;;;;;;5034642;28;20046;-74
2023/08/16 10:27:55;;;;;;;10.43;3.00;;;22.40;99.90;;;;;;5025916;28;20015;-73
2023/08/16 10:30:23;;;;;;;5.05;2.83;;;22.30;99.90;;;;;;5012179;28;20054;-74
2023/08/16 10:32:57;;;;;;;4.20;2.65;;;22.40;99.90;;;;;;5001529;28;20556;-74
2023/08/16 10:35:23;;;;;;;5.05;2.63;;;22.60;99.90;;;;;;5018880;28;20467;-73
2023/08/16 10:37:53;;;;;;;4.53;2.40;;;22.70;99.90;;;;;;5010128;28;20057;-72
2023/08/16 10:40:20;;;;;;;3.45;2.42;;;22.90;99.90;;;;;;5010280;28;20380;-72
2023/08/16 10:42:55;;;;;;;7.43;2.78;;;23.00;99.90;;;;;;5029874;28;20045;-73
2023/08/16 10:45:23;;;;;;;4.50;2.67;;;23.00;99.90;;;;;;4996853;28;20034;-73
2023/08/16 10:47:48;;;;;;;5.50;2.90;;;22.80;99.90;;;;;;5009381;28;20076;-72
2023/08/16 10:50:14;;;;;;;4.25;2.75;;;22.80;99.90;;;;;;5007083;28;20038;-73
2023/08/16 10:52:42;;;;;;;3.10;2.80;;;22.70;99.90;;;;;;4997293;28;20030;-73
2023/08/16 10:55:08;;;;;;;5.90;3.03;;;22.60;99.90;;;;;;4978736;28;20542;-73
2023/08/16 10:57:36;;;;;;;6.78;2.83;;;22.60;99.90;;;;;;5015239;28;20038;-72
2023/08/16 11:00:08;;;;;;;6.50;3.13;;;22.60;99.90;;;;;;5025923;28;20041;-72
2023/08/16 11:02:39;;;;;;;6.38;2.95;;;22.60;99.90;;;;;;4995425;28;20076;-72
2023/08/16 11:05:14;;;;;;;4.60;2.63;;;22.50;99.90;;;;;;5006016;28;20121;-72
2023/08/16 11:07:43;;;;;;;4.22;2.90;;;22.40;99.90;;;;;;5036405;28;20035;-73
2023/08/16 11:10:09;;;;;;;11.02;3.20;;;22.40;99.90;;;;;;5049884;28;20077;-72
2023/08/16 11:12:34;;;;;;;5.45;3.30;;;22.50;99.90;;;;;;4994011;28;20128;-73
2023/08/16 11:15:01;;;;;;;3.40;3.00;;;22.50;99.90;;;;;;5036321;28;20072;-73
2023/08/16 11:17:28;;;;;;;6.70;3.35;;;22.50;99.90;;;;;;4976693;28;20501;-72
2023/08/16 11:19:54;;;;;;;6.60;3.03;;;22.50;99.90;;;;;;5005365;28;20045;-79
2023/08/16 11:22:21;;;;;;;6.55;3.20;;;22.50;99.90;;;;;;5022942;28;20038;-78
2023/08/16 11:24:48;;;;;;;4.03;3.15;;;22.60;99.90;;;;;;4998836;28;20042;-78
2023/08/16 11:27:20;;;;;;;2.97;2.33;;;22.70;99.90;;;;;;5015490;28;20407;-79
2023/08/16 11:29:56;;;;;;;4.22;2.10;;;22.70;99.90;;;;;;5002444;28;20125;-79
2023/08/16 11:32:31;;;;;;;5.38;2.58;;;22.70;99.90;;;;;;5032307;28;20046;-77
2023/08/16 11:34:56;;;;;;;5.55;3.20;;;22.80;99.90;;;;;;5033462;28;20038;-79
2023/08/16 11:37:22;;;;;;;3.97;2.97;;;22.80;99.90;;;;;;5027907;28;20042;-79
2023/08/16 11:39:59;;;;;;;4.68;2.92;;;22.90;99.90;;;;;;5020497;28;20406;-78
2023/08/16 11:42:27;;;;;;;4.80;3.25;;;23.00;99.90;;;;;;5015718;28;20157;-78
2023/08/16 11:44:52;;;;;;;5.80;2.55;;;23.10;99.90;;;;;;5008495;28;20130;-78
2023/08/16 11:47:18;;;;;;;7.32;2.70;;;23.20;99.90;;;;;;5027873;28;20069;-79
2023/08/16 11:49:44;;;;;;;3.55;2.38;;;23.20;99.90;;;;;;5011112;28;20505;-79
2023/08/16 11:52:09;;;;;;;3.65;2.58;;;23.40;99.90;;;;;;5035897;28;20038;-80
2023/08/16 11:54:35;;;;;;;5.35;2.40;;;23.60;99.90;;;;;;5044011;28;20038;-81
2023/08/16 11:57:01;;;;;;;3.28;2.00;;;23.80;99.90;;;;;;5015217;28;20398;-71
2023/08/16 11:59:28;;;;;;;3.30;1.92;;;24.10;99.90;;;;;;5032463;28;20045;-72
2023/08/16 12:01:55;;;;;;;3.60;1.80;;;24.10;99.90;;;;;;4993520;28;20111;-72
2023/08/16 12:04:24;;;;;;;3.63;2.00;;;24.30;99.90;;;;;;5026391;28;20070;-71
2023/08/16 12:06:50;;;;;;;3.58;1.95;;;24.30;99.90;;;;;;5008308;28;20064;-72
2023/08/16 12:09:17;;;;;;;4.15;2.25;;;24.30;99.90;;;;;;4991980;28;20045;-70
2023/08/16 12:11:42;;;;;;;3.97;1.80;;;24.20;99.90;;;;;;5053383;28;20034;-71
2023/08/16 12:14:08;;;;;;;5.32;2.00;;;24.10;99.90;;;;;;5011756;28;20038;-72
2023/08/16 12:16:34;;;;;;;2.85;1.80;;;24.10;99.90;;;;;;5000180;28;20810;-71
2023/08/16 12:19:00;;;;;;;3.85;1.60;;;24.10;99.90;;;;;;5007344;28;20049;-72
2023/08/16 12:21:26;;;;;;;4.53;2.00;;;24.10;99.90;;;;;;4990892;28;20117;-71
2023/08/16 12:23:52;;;;;;;2.13;1.58;;;23.90;99.90;;;;;;5033520;28;20046;-70
2023/08/16 12:26:18;;;;;;;3.70;1.58;;;23.70;99.90;;;;;;5001273;28;20124;-70
2023/08/16 12:28:43;;;;;;;5.35;1.50;;;23.60;99.90;;;;;;5032349;28;20503;-69
2023/08/16 12:31:10;;;;;;;5.05;2.00;;;23.70;99.90;;;;;;4991505;28;20161;-71
2023/08/16 12:33:36;;;;;;;2.70;1.40;;;23.70;99.90;;;;;;5022177;28;20038;-70
2023/08/16 12:36:02;;;;;;;4.00;1.55;;;23.70;99.90;;;;;;5023851;28;20461;-70
2023/08/16 12:38:28;;;;;;;1.92;1.73;;;23.90;99.90;;;;;;5010073;28;20630;-70
2023/08/16 12:40:53;;;;;;;2.10;1.80;;;24.10;99.90;;;;;;4994455;28;20124;-69